createdAt,value
2024-02-19T07:20:41.181Z,1002.37
2024-02-19T07:21:41.139Z,1002.43
2024-02-19T07:22:41.196Z,1002.45
2024-02-19T07:23:41.083Z,1002.49
2024-02-19T07:24:41.096Z,1002.52
2024-02-19T07:25:41.101Z,1002.53
2024-02-19T07:26:41.056Z,1002.54
2024-02-19T07:27:41.101Z,1002.56
2024-02-19T07:28:41.043Z,1002.59
2024-02-19T07:29:41.022Z,1002.57
2024-02-19T07:30:41.044Z,1002.59
2024-02-19T07:31:41.012Z,1002.61
2024-02-19T07:32:41.116Z,1002.67
2024-02-19T07:33:41.153Z,1002.69
2024-02-19T07:34:44.171Z,1002.66
2024-02-19T07:35:40.968Z,1002.70
2024-02-19T07:36:41.047Z,1002.75
2024-02-19T07:37:40.947Z,1002.75
2024-02-19T07:38:40.889Z,1002.74
2024-02-19T07:39:40.938Z,1002.76
2024-02-19T07:40:40.983Z,1002.78
2024-02-19T07:41:40.896Z,1002.78
2024-02-19T07:42:40.948Z,1002.81
2024-02-19T07:43:40.842Z,1002.83
2024-02-19T07:44:40.845Z,1002.80
2024-02-19T07:45:40.892Z,1002.82
2024-02-19T07:46:40.829Z,1002.88
2024-02-19T07:47:40.884Z,1002.91
2024-02-19T07:48:41.176Z,1002.94
2024-02-19T07:49:40.994Z,1002.94
2024-02-19T07:50:40.792Z,1002.98
2024-02-19T07:51:40.876Z,1003.02
2024-02-19T07:52:40.781Z,1002.96
2024-02-19T07:53:40.753Z,1002.97
2024-02-19T07:54:40.783Z,1002.98
2024-02-19T07:55:40.679Z,1002.99
2024-02-19T07:56:40.711Z,1003.00
2024-02-19T07:57:40.794Z,1003.01
2024-02-19T07:58:40.656Z,1003.05
2024-02-19T07:59:40.750Z,1003.05
2024-02-19T08:00:40.756Z,1003.04
2024-02-19T08:01:40.740Z,1003.02
2024-02-19T08:02:40.627Z,1003.02
2024-02-19T08:03:40.740Z,1003.00
2024-02-19T08:04:40.747Z,1003.05
2024-02-19T08:05:40.620Z,1003.08
2024-02-19T08:06:40.647Z,1003.14
2024-02-19T08:07:40.692Z,1003.17
2024-02-19T08:08:40.577Z,1003.22
2024-02-19T08:09:40.657Z,1003.21
2024-02-19T08:10:40.514Z,1003.24
2024-02-19T08:11:40.611Z,1003.29
2024-02-19T08:12:43.188Z,1003.29
2024-02-19T08:13:40.525Z,1003.31
2024-02-19T08:14:40.441Z,1003.34
2024-02-19T08:15:40.529Z,1003.35
2024-02-19T08:16:41.890Z,1003.37
2024-02-19T08:17:40.506Z,1003.38
2024-02-19T08:18:40.514Z,1003.36
2024-02-19T08:19:40.427Z,1003.40
2024-02-19T08:20:40.390Z,1003.34
2024-02-19T08:21:41.062Z,1003.41
2024-02-19T08:22:41.949Z,1003.40
2024-02-19T08:23:40.366Z,1003.39
2024-02-19T08:24:40.486Z,1003.40
2024-02-19T08:25:40.315Z,1003.38
2024-02-19T08:26:40.334Z,1003.42
2024-02-19T08:27:40.382Z,1003.35
2024-02-19T08:28:40.325Z,1003.39
2024-02-19T08:29:40.414Z,1003.38
2024-02-19T08:30:40.273Z,1003.40
2024-02-19T08:31:40.307Z,1003.42
2024-02-19T08:32:40.319Z,1003.43
2024-02-19T08:33:40.363Z,1003.44
2024-02-19T08:34:40.380Z,1003.46
2024-02-19T08:35:40.618Z,1003.49
2024-02-19T08:36:40.287Z,1003.52
2024-02-19T08:37:40.226Z,1003.51
2024-02-19T08:38:40.252Z,1003.62
2024-02-19T08:39:42.545Z,1003.59
2024-02-19T08:40:40.210Z,1003.64
2024-02-19T08:41:40.105Z,1003.63
2024-02-19T08:42:40.140Z,1003.61
2024-02-19T08:43:40.112Z,1003.63
2024-02-19T08:44:40.077Z,1003.66
2024-02-19T08:45:40.157Z,1003.65
2024-02-19T08:46:40.051Z,1003.67
2024-02-19T08:47:40.101Z,1003.67
2024-02-19T08:48:40.158Z,1003.67
2024-02-19T08:49:40.084Z,1003.67
2024-02-19T08:50:40.139Z,1003.65
2024-02-19T08:51:40.024Z,1003.67
2024-02-19T08:52:40.033Z,1003.66
2024-02-19T08:53:40.039Z,1003.67
2024-02-19T08:54:40.044Z,1003.70
2024-02-19T08:55:39.994Z,1003.72
2024-02-19T08:56:39.940Z,1003.72
2024-02-19T08:57:39.966Z,1003.73
2024-02-19T08:58:39.881Z,1003.75
2024-02-19T08:59:39.944Z,1003.69
2024-02-19T09:00:39.960Z,1003.68
2024-02-19T09:01:39.998Z,1003.64
2024-02-19T09:02:39.939Z,1003.69
2024-02-19T09:03:39.916Z,1003.69
2024-02-19T09:04:39.886Z,1003.68
2024-02-19T09:05:39.856Z,1003.68
2024-02-19T09:06:39.915Z,1003.67
2024-02-19T09:07:39.876Z,1003.63
2024-02-19T09:08:39.759Z,1003.68
2024-02-19T09:09:39.787Z,1003.68
2024-02-19T09:10:39.829Z,1003.64
2024-02-19T09:11:39.761Z,1003.69
2024-02-19T09:12:39.811Z,1003.65
2024-02-19T09:13:39.768Z,1003.65
2024-02-19T09:14:39.744Z,1003.64
2024-02-19T09:15:39.828Z,1003.66
2024-02-19T09:16:39.701Z,1003.64
2024-02-19T09:17:39.704Z,1003.66
2024-02-19T09:18:39.809Z,1003.69
2024-02-19T09:19:39.852Z,1003.68
2024-02-19T09:20:39.671Z,1003.75
2024-02-19T09:21:39.635Z,1003.75
2024-02-19T09:22:39.705Z,1003.75
2024-02-19T09:23:39.592Z,1003.76
2024-02-19T09:24:39.674Z,1003.75
2024-02-19T09:25:39.584Z,1003.78
2024-02-19T09:26:39.563Z,1003.79
2024-02-19T09:27:39.630Z,1003.82
2024-02-19T09:28:39.525Z,1003.83
2024-02-19T09:29:39.552Z,1003.82
2024-02-19T09:30:39.505Z,1003.81
2024-02-19T09:31:39.502Z,1003.87
2024-02-19T09:32:39.730Z,1003.85
2024-02-19T09:33:39.550Z,1003.82
2024-02-19T09:34:39.639Z,1003.84
2024-02-19T09:35:39.483Z,1003.80
2024-02-19T09:36:39.508Z,1003.80
2024-02-19T09:37:39.398Z,1003.73
2024-02-19T09:38:39.437Z,1003.79
2024-02-19T09:39:39.707Z,1003.79
2024-02-19T09:40:39.439Z,1003.83
2024-02-19T09:41:39.382Z,1003.89
2024-02-19T09:42:39.334Z,1003.97
2024-02-19T09:43:39.322Z,1003.93
2024-02-19T09:44:39.356Z,1003.93
2024-02-19T09:45:39.426Z,1003.96
2024-02-19T09:46:41.115Z,1004.03
2024-02-19T09:47:39.380Z,1003.99
2024-02-19T09:48:39.350Z,1004.01
2024-02-19T09:49:39.390Z,1004.05
2024-02-19T09:50:39.263Z,1004.00
2024-02-19T09:51:41.374Z,1004.05
2024-02-19T09:52:39.332Z,1004.04
2024-02-19T09:53:39.197Z,1004.02
2024-02-19T09:54:39.256Z,1004.05
2024-02-19T09:55:39.177Z,1004.07
2024-02-19T09:56:39.200Z,1004.10
2024-02-19T09:57:39.174Z,1004.12
2024-02-19T09:58:40.362Z,1004.12
2024-02-19T09:59:39.105Z,1004.11
2024-02-19T10:00:39.179Z,1004.10
2024-02-19T10:01:39.222Z,1004.08
2024-02-19T10:02:39.334Z,1004.13
2024-02-19T10:03:39.070Z,1004.15
2024-02-19T10:04:39.156Z,1004.19
2024-02-19T10:05:39.245Z,1004.18
2024-02-19T10:06:39.199Z,1004.21
2024-02-19T10:07:39.096Z,1004.20
2024-02-19T10:08:39.023Z,1004.18
2024-02-19T10:09:39.045Z,1004.20
2024-02-19T10:10:39.016Z,1004.20
2024-02-19T10:11:39.077Z,1004.24
2024-02-19T10:12:38.962Z,1004.21
2024-02-19T10:13:38.966Z,1004.23
2024-02-19T10:14:39.054Z,1004.20
2024-02-19T10:15:38.958Z,1004.15
2024-02-19T10:16:38.975Z,1004.19
2024-02-19T10:17:38.974Z,1004.15
2024-02-19T10:18:38.910Z,1004.13
2024-02-19T10:19:38.944Z,1004.14
2024-02-19T10:20:38.840Z,1004.14
2024-02-19T10:21:38.877Z,1004.13
2024-02-19T10:22:38.826Z,1004.16
2024-02-19T10:23:38.812Z,1004.13
2024-02-19T10:24:38.911Z,1004.04
2024-02-19T10:25:38.825Z,1004.06
2024-02-19T10:26:38.769Z,1004.03
2024-02-19T10:27:38.795Z,1004.02
2024-02-19T10:28:38.816Z,1004.00
2024-02-19T10:29:38.807Z,1004.01
2024-02-19T10:30:38.728Z,1004.03
2024-02-19T10:31:38.756Z,1004.06
2024-02-19T10:32:38.826Z,1004.03
2024-02-19T10:33:38.886Z,1003.97
2024-02-19T10:34:38.715Z,1004.05
2024-02-19T10:35:38.788Z,1004.02
2024-02-19T10:36:38.682Z,1004.04
2024-02-19T10:37:38.680Z,1004.00
2024-02-19T10:38:38.671Z,1004.01
2024-02-19T10:39:38.636Z,1003.96
2024-02-19T10:40:38.630Z,1004.00
2024-02-19T10:41:38.616Z,1003.98
2024-02-19T10:42:38.599Z,1003.93
2024-02-19T10:43:38.553Z,1003.96
2024-02-19T10:44:38.556Z,1003.97
2024-02-19T10:45:38.685Z,1004.01
2024-02-19T10:46:38.636Z,1004.00
2024-02-19T10:47:38.617Z,1003.98
2024-02-19T10:48:38.624Z,1003.97
2024-02-19T10:49:38.591Z,1003.99
2024-02-19T10:50:38.530Z,1003.99
2024-02-19T10:51:38.449Z,1003.90
2024-02-19T10:52:38.455Z,1003.89
2024-02-19T10:53:38.479Z,1003.87
2024-02-19T10:54:38.414Z,1003.84
2024-02-19T10:55:49.621Z,1003.89
2024-02-19T10:56:39.645Z,1003.85
2024-02-19T10:57:38.461Z,1003.82
2024-02-19T10:58:38.378Z,1003.80
2024-02-19T10:59:38.396Z,1003.84
2024-02-19T11:00:38.355Z,1003.78
2024-02-19T11:01:38.477Z,1003.74
2024-02-19T11:02:38.316Z,1003.75
2024-02-19T11:03:38.312Z,1003.69
2024-02-19T11:04:38.339Z,1003.76
2024-02-19T11:05:38.388Z,1003.75
2024-02-19T11:06:38.265Z,1003.75
2024-02-19T11:07:38.279Z,1003.74
2024-02-19T11:08:38.272Z,1003.77
2024-02-19T11:09:38.316Z,1003.77
2024-02-19T11:10:38.341Z,1003.72
2024-02-19T11:11:38.306Z,1003.65
2024-02-19T11:12:38.220Z,1003.68
2024-02-19T11:13:38.216Z,1003.66
2024-02-19T11:14:38.290Z,1003.63
2024-02-19T11:15:38.175Z,1003.55
2024-02-19T11:16:38.132Z,1003.54
2024-02-19T11:17:38.278Z,1003.53
2024-02-19T11:18:38.196Z,1003.58
2024-02-19T11:19:38.302Z,1003.51
2024-02-19T11:20:38.083Z,1003.51
2024-02-19T11:21:38.090Z,1003.46
2024-02-19T11:22:38.076Z,1003.52
2024-02-19T11:23:38.050Z,1003.44
2024-02-19T11:24:38.133Z,1003.43
2024-02-19T11:25:38.059Z,1003.37
2024-02-19T11:26:38.112Z,1003.40
2024-02-19T11:27:38.106Z,1003.35
2024-02-19T11:28:38.135Z,1003.32
2024-02-19T11:29:44.340Z,1003.31
2024-02-19T11:30:39.758Z,1003.30
2024-02-19T11:31:38.009Z,1003.27
2024-02-19T11:32:38.064Z,1003.27
2024-02-19T11:33:37.957Z,1003.23
2024-02-19T11:34:38.067Z,1003.14
2024-02-19T11:35:38.016Z,1003.13
2024-02-19T11:36:37.909Z,1003.17
2024-02-19T11:37:37.928Z,1003.15
2024-02-19T11:38:37.870Z,1003.16
2024-02-19T11:39:37.891Z,1003.10
2024-02-19T11:40:37.890Z,1003.11
2024-02-19T11:41:37.941Z,1003.11
2024-02-19T11:42:37.845Z,1003.10
2024-02-19T11:43:37.872Z,1003.12
2024-02-19T11:44:37.853Z,1003.08
2024-02-19T11:45:37.834Z,1003.06
2024-02-19T11:46:37.807Z,1003.06
2024-02-19T11:47:37.760Z,1003.09
2024-02-19T11:48:37.961Z,1002.99
2024-02-19T11:49:37.841Z,1002.98
2024-02-19T11:50:37.741Z,1003.01
2024-02-19T11:51:37.862Z,1003.04
2024-02-19T11:52:37.765Z,1003.05
2024-02-19T11:53:37.709Z,1003.02
2024-02-19T11:54:37.729Z,1003.02
2024-02-19T11:55:37.727Z,1003.05
2024-02-19T11:56:37.667Z,1003.07
2024-02-19T11:57:37.737Z,1003.04
2024-02-19T11:58:37.752Z,1003.00
2024-02-19T11:59:37.706Z,1003.04
2024-02-19T12:00:37.645Z,1002.95
2024-02-19T12:01:37.671Z,1002.95
2024-02-19T12:02:37.606Z,1002.93
2024-02-19T12:03:37.544Z,1002.88
2024-02-19T12:04:37.658Z,1002.85
2024-02-19T12:05:37.647Z,1002.89
2024-02-19T12:06:37.578Z,1002.89
2024-02-19T12:07:37.623Z,1002.86
2024-02-19T12:08:37.685Z,1002.88
2024-02-19T12:09:37.521Z,1002.88
2024-02-19T12:10:37.539Z,1002.88
2024-02-19T12:11:37.501Z,1002.79
2024-02-19T12:12:37.469Z,1002.75
2024-02-19T12:13:37.607Z,1002.81
2024-02-19T12:14:37.418Z,1002.75
2024-02-19T12:15:37.475Z,1002.71
2024-02-19T12:16:37.468Z,1002.68
2024-02-19T12:17:37.441Z,1002.72
2024-02-19T12:18:37.464Z,1002.68
2024-02-19T12:19:37.527Z,1002.69
2024-02-19T12:20:37.516Z,1002.65
2024-02-19T12:21:37.393Z,1002.71
2024-02-19T12:22:37.350Z,1002.60
2024-02-19T12:23:37.381Z,1002.66
2024-02-19T12:24:37.306Z,1002.54
2024-02-19T12:25:37.379Z,1002.68
2024-02-19T12:26:37.248Z,1002.64
2024-02-19T12:27:37.257Z,1002.64
2024-02-19T12:28:37.281Z,1002.67
2024-02-19T12:29:37.258Z,1002.67
2024-02-19T12:30:37.219Z,1002.52
2024-02-19T12:31:37.249Z,1002.62
2024-02-19T12:32:37.370Z,1002.58
2024-02-19T12:33:37.255Z,1002.56
2024-02-19T12:34:37.233Z,1002.56
2024-02-19T12:35:39.844Z,1002.54
2024-02-19T12:36:37.520Z,1002.55
2024-02-19T12:37:37.218Z,1002.56
2024-02-19T12:38:37.101Z,1002.55
2024-02-19T12:39:37.108Z,1002.54
2024-02-19T12:40:37.314Z,1002.56
2024-02-19T12:41:37.091Z,1002.50
2024-02-19T12:42:37.128Z,1002.55
2024-02-19T12:43:37.171Z,1002.51
2024-02-19T12:44:37.037Z,1002.54
2024-02-19T12:45:37.044Z,1002.51
2024-02-19T12:46:37.063Z,1002.44
2024-02-19T12:47:37.221Z,1002.48
2024-02-19T12:48:37.225Z,1002.47
2024-02-19T12:49:39.804Z,1002.53
2024-02-19T12:50:37.162Z,1002.44
2024-02-19T12:51:37.299Z,1002.46
2024-02-19T12:52:37.057Z,1002.40
2024-02-19T12:53:36.954Z,1002.42
2024-02-19T12:54:36.993Z,1002.48
2024-02-19T12:55:36.919Z,1002.44
2024-02-19T12:56:36.914Z,1002.43
2024-02-19T12:57:36.895Z,1002.40
2024-02-19T12:58:36.936Z,1002.42
2024-02-19T12:59:36.877Z,1002.40
2024-02-19T13:00:36.858Z,1002.42
2024-02-19T13:01:36.994Z,1002.41
2024-02-19T13:02:37.015Z,1002.47
2024-02-19T13:03:36.805Z,1002.36
2024-02-19T13:04:36.914Z,1002.39
2024-02-19T13:05:36.821Z,1002.37
2024-02-19T13:06:36.801Z,1002.32
2024-02-19T13:07:36.852Z,1002.31
2024-02-19T13:08:36.754Z,1002.30
2024-02-19T13:09:36.771Z,1002.28
2024-02-19T13:10:36.824Z,1002.24
2024-02-19T13:11:36.899Z,1002.32
2024-02-19T13:12:36.696Z,1002.25
2024-02-19T13:13:36.769Z,1002.24
2024-02-19T13:14:36.678Z,1002.23
2024-02-19T13:15:36.681Z,1002.31
2024-02-19T13:16:36.725Z,1002.29
2024-02-19T13:17:42.952Z,1002.32
2024-02-19T13:18:37.816Z,1002.36
2024-02-19T13:19:36.954Z,1002.33
2024-02-19T13:20:37.450Z,1002.33
2024-02-19T13:21:36.943Z,1002.35
2024-02-19T13:22:37.780Z,1002.32
2024-02-19T13:23:38.141Z,1002.32
2024-02-19T13:24:40.215Z,1002.29
2024-02-19T13:25:40.199Z,1002.31
2024-02-19T13:26:40.015Z,1002.23
2024-02-19T13:27:36.522Z,1002.27
2024-02-19T13:28:36.520Z,1002.23
2024-02-19T13:29:36.492Z,1002.17
2024-02-19T13:30:36.506Z,1002.19
2024-02-19T13:31:36.462Z,1002.21
2024-02-19T13:32:36.503Z,1002.16
2024-02-19T13:33:36.468Z,1002.10
2024-02-19T13:34:36.535Z,1002.17
2024-02-19T13:35:36.504Z,1002.13
2024-02-19T13:36:36.366Z,1002.10
2024-02-19T13:37:36.457Z,1002.12
2024-02-19T13:38:36.371Z,1002.10
2024-02-19T13:39:36.354Z,1002.12
2024-02-19T13:40:36.436Z,1002.09
2024-02-19T13:41:36.340Z,1002.11
2024-02-19T13:42:36.357Z,1002.16
2024-02-19T13:43:36.502Z,1002.10
2024-02-19T13:44:37.648Z,1002.09
2024-02-19T13:45:36.318Z,1002.03
2024-02-19T13:46:36.386Z,1002.00
2024-02-19T13:47:38.527Z,1001.99
2024-02-19T13:48:36.315Z,1001.99
2024-02-19T13:49:36.329Z,1001.99
2024-02-19T13:50:36.389Z,1001.96
2024-02-19T13:51:36.197Z,1001.94
2024-02-19T13:52:36.357Z,1001.93
2024-02-19T13:53:36.199Z,1001.91
2024-02-19T13:54:36.195Z,1001.84
2024-02-19T13:55:36.180Z,1001.83
2024-02-19T13:56:36.150Z,1001.83
2024-02-19T13:57:36.137Z,1001.82
2024-02-19T13:58:36.112Z,1001.85
2024-02-19T13:59:36.110Z,1001.82
2024-02-19T14:00:36.083Z,1001.83
2024-02-19T14:01:39.414Z,1001.80
2024-02-19T14:02:37.178Z,1001.83
2024-02-19T14:03:36.098Z,1001.80
2024-02-19T14:04:36.117Z,1001.74
2024-02-19T14:05:36.005Z,1001.74
2024-02-19T14:06:36.290Z,1001.74
2024-02-19T14:07:36.028Z,1001.72
2024-02-19T14:08:36.025Z,1001.73
2024-02-19T14:09:35.959Z,1001.78
2024-02-19T14:10:36.077Z,1001.75
2024-02-19T14:11:36.152Z,1001.75
2024-02-19T14:12:35.913Z,1001.70
2024-02-19T14:13:46.172Z,1001.71
2024-02-19T14:14:36.919Z,1001.70
2024-02-19T14:15:35.878Z,1001.69
2024-02-19T14:16:35.988Z,1001.71
2024-02-19T14:17:35.918Z,1001.70
2024-02-19T14:18:35.878Z,1001.66
2024-02-19T14:19:35.916Z,1001.69
2024-02-19T14:20:35.858Z,1001.64
2024-02-19T14:21:35.828Z,1001.67
2024-02-19T14:22:35.832Z,1001.64
2024-02-19T14:23:35.776Z,1001.66
2024-02-19T14:24:35.837Z,1001.68
2024-02-19T14:25:35.864Z,1001.68
2024-02-19T14:26:35.730Z,1001.67
2024-02-19T14:27:35.726Z,1001.69
2024-02-19T14:28:35.765Z,1001.66
2024-02-19T14:29:35.699Z,1001.64
2024-02-19T14:30:35.712Z,1001.65
2024-02-19T14:31:35.757Z,1001.61
2024-02-19T14:32:35.706Z,1001.62
2024-02-19T14:33:35.675Z,1001.62
2024-02-19T14:34:35.714Z,1001.59
2024-02-19T14:35:35.753Z,1001.61
2024-02-19T14:36:35.780Z,1001.59
2024-02-19T14:37:35.625Z,1001.59
2024-02-19T14:38:35.599Z,1001.58
2024-02-19T14:39:35.576Z,1001.60
2024-02-19T14:40:35.659Z,1001.57
2024-02-19T14:41:35.595Z,1001.58
2024-02-19T14:42:35.536Z,1001.56
2024-02-19T14:43:35.694Z,1001.50
2024-02-19T14:44:35.563Z,1001.51
2024-02-19T14:45:35.525Z,1001.48
2024-02-19T14:46:36.245Z,1001.53
2024-02-19T14:47:35.586Z,1001.46
2024-02-19T14:48:35.636Z,1001.56
2024-02-19T14:49:35.765Z,1001.55
2024-02-19T14:50:35.619Z,1001.59
2024-02-19T14:51:35.454Z,1001.61
2024-02-19T14:52:35.477Z,1001.58
2024-02-19T14:53:35.417Z,1001.62
2024-02-19T14:54:35.500Z,1001.61
2024-02-19T14:55:35.460Z,1001.59
2024-02-19T14:56:35.411Z,1001.60
2024-02-19T14:57:35.392Z,1001.61
2024-02-19T14:58:35.399Z,1001.65
2024-02-19T14:59:35.352Z,1001.63
2024-02-19T15:00:35.370Z,1001.62
2024-02-19T15:01:35.406Z,1001.60
2024-02-19T15:02:35.300Z,1001.63
2024-02-19T15:03:35.369Z,1001.62
2024-02-19T15:04:35.393Z,1001.61
2024-02-19T15:05:35.348Z,1001.56
2024-02-19T15:06:35.334Z,1001.64
2024-02-19T15:07:35.308Z,1001.55
2024-02-19T15:08:35.237Z,1001.59
2024-02-19T15:09:35.228Z,1001.59
2024-02-19T15:10:35.334Z,1001.58
2024-02-19T15:11:35.217Z,1001.57
2024-02-19T15:12:35.201Z,1001.59
2024-02-19T15:13:35.228Z,1001.57
2024-02-19T15:14:35.162Z,1001.53
2024-02-19T15:15:35.162Z,1001.52
2024-02-19T15:16:35.223Z,1001.53
2024-02-19T15:17:35.372Z,1001.51
2024-02-19T15:18:35.210Z,1001.50
2024-02-19T15:19:35.214Z,1001.53
2024-02-19T15:20:35.169Z,1001.53
2024-02-19T15:21:35.119Z,1001.53
2024-02-19T15:22:35.122Z,1001.52
2024-02-19T15:23:35.054Z,1001.53
2024-02-19T15:24:35.066Z,1001.56
2024-02-19T15:25:35.696Z,1001.53
2024-02-19T15:26:35.008Z,1001.51
2024-02-19T15:27:35.002Z,1001.53
2024-02-19T15:28:34.984Z,1001.52
2024-02-19T15:29:34.970Z,1001.53
2024-02-19T15:30:34.933Z,1001.45
2024-02-19T15:31:38.919Z,1001.51
2024-02-19T15:32:35.985Z,1001.49
2024-02-19T15:33:34.901Z,1001.50
2024-02-19T15:34:35.056Z,1001.46
2024-02-19T15:35:34.960Z,1001.47
2024-02-19T15:36:34.876Z,1001.42
2024-02-19T15:37:35.035Z,1001.44
2024-02-19T15:38:34.896Z,1001.42
2024-02-19T15:39:34.877Z,1001.39
2024-02-19T15:40:34.874Z,1001.43
2024-02-19T15:41:34.881Z,1001.39
2024-02-19T15:42:34.837Z,1001.37
2024-02-19T15:43:34.810Z,1001.36
2024-02-19T15:44:34.760Z,1001.34
2024-02-19T15:45:34.821Z,1001.35
2024-02-19T15:46:34.907Z,1001.37
2024-02-19T15:47:34.968Z,1001.29
2024-02-19T15:48:34.752Z,1001.35
2024-02-19T15:49:34.929Z,1001.34
2024-02-19T15:50:34.734Z,1001.37
2024-02-19T15:51:34.751Z,1001.31
2024-02-19T15:52:34.779Z,1001.34
2024-02-19T15:53:34.651Z,1001.29
2024-02-19T15:54:34.635Z,1001.29
2024-02-19T15:55:34.774Z,1001.27
2024-02-19T15:56:34.640Z,1001.26
2024-02-19T15:57:34.840Z,1001.30
2024-02-19T15:58:34.603Z,1001.22
2024-02-19T15:59:34.587Z,1001.27
2024-02-19T16:00:34.596Z,1001.25
2024-02-19T16:01:34.748Z,1001.26
2024-02-19T16:02:34.540Z,1001.23
2024-02-19T16:03:34.591Z,1001.20
2024-02-19T16:04:34.570Z,1001.25
2024-02-19T16:05:34.596Z,1001.24
2024-02-19T16:06:34.545Z,1001.24
2024-02-19T16:07:34.557Z,1001.21
2024-02-19T16:08:34.486Z,1001.23
2024-02-19T16:09:34.487Z,1001.20
2024-02-19T16:10:34.461Z,1001.18
2024-02-19T16:11:34.578Z,1001.17
2024-02-19T16:12:34.434Z,1001.20
2024-02-19T16:13:34.483Z,1001.17
2024-02-19T16:14:34.380Z,1001.12
2024-02-19T16:15:34.352Z,1001.12
2024-02-19T16:16:34.552Z,1001.14
2024-02-19T16:17:34.454Z,1001.15
2024-02-19T16:18:34.460Z,1001.18
2024-02-19T16:19:34.576Z,1001.19
2024-02-19T16:20:34.309Z,1001.18
2024-02-19T16:21:34.383Z,1001.13
2024-02-19T16:22:34.309Z,1001.12
2024-02-19T16:23:34.344Z,1001.16
2024-02-19T16:24:34.234Z,1001.12
2024-02-19T16:25:34.234Z,1001.08
2024-02-19T16:26:34.230Z,1001.08
2024-02-19T16:27:34.202Z,1001.03
2024-02-19T16:28:34.252Z,1001.07
2024-02-19T16:29:34.223Z,1001.12
2024-02-19T16:30:34.178Z,1001.08
2024-02-19T16:31:34.394Z,1001.06
2024-02-19T16:32:34.192Z,1001.03
2024-02-19T16:33:34.269Z,1001.07
2024-02-19T16:34:34.272Z,1001.05
2024-02-19T16:35:34.292Z,1001.05
2024-02-19T16:36:34.099Z,1001.06
2024-02-19T16:37:34.084Z,1001.02
2024-02-19T16:38:34.097Z,1001.03
2024-02-19T16:39:34.074Z,1001.06
2024-02-19T16:40:34.108Z,1001.05
2024-02-19T16:41:34.016Z,1001.04
2024-02-19T16:42:34.021Z,1001.00
2024-02-19T16:43:34.046Z,1001.03
2024-02-19T16:44:34.037Z,1001.03
2024-02-19T16:45:33.992Z,1001.04
2024-02-19T16:46:34.034Z,1001.03
2024-02-19T16:47:33.995Z,1001.02
2024-02-19T16:48:34.020Z,1001.06
2024-02-19T16:49:34.117Z,1001.03
2024-02-19T16:50:33.916Z,1001.02
2024-02-19T16:51:33.956Z,1001.07
2024-02-19T16:52:34.072Z,1001.03
2024-02-19T16:53:33.883Z,1001.03
2024-02-19T16:54:33.995Z,1001.01
2024-02-19T16:55:33.982Z,1001.02
2024-02-19T16:56:33.887Z,1001.03
2024-02-19T16:57:33.811Z,1000.99
2024-02-19T16:58:34.106Z,1000.96
2024-02-19T16:59:33.827Z,1000.95
2024-02-19T17:00:33.933Z,1000.92
2024-02-19T17:01:33.982Z,1000.95
2024-02-19T17:02:33.792Z,1000.90
2024-02-19T17:03:33.836Z,1000.97
2024-02-19T17:04:33.856Z,1000.98
2024-02-19T17:05:33.864Z,1000.94
2024-02-19T17:06:33.856Z,1000.90
2024-02-19T17:07:33.935Z,1000.96
2024-02-19T17:08:33.798Z,1000.97
2024-02-19T17:09:33.666Z,1000.92
2024-02-19T17:10:33.808Z,1000.92
2024-02-19T17:11:33.812Z,1000.99
2024-02-19T17:12:33.654Z,1000.98
2024-02-19T17:13:33.671Z,1000.98
2024-02-19T17:14:33.645Z,1001.02
2024-02-19T17:15:33.616Z,1001.01
2024-02-19T17:16:33.688Z,1001.00
2024-02-19T17:17:33.578Z,1000.96
2024-02-19T17:18:33.839Z,1000.99
2024-02-19T17:19:33.760Z,1000.98
2024-02-19T17:20:33.612Z,1000.99
2024-02-19T17:21:33.567Z,1001.00
2024-02-19T17:22:33.549Z,1000.94
2024-02-19T17:23:33.517Z,1000.94
2024-02-19T17:24:33.570Z,1000.93
2024-02-19T17:25:33.628Z,1000.93
2024-02-19T17:26:33.488Z,1000.91
2024-02-19T17:27:33.458Z,1000.90
2024-02-19T17:28:33.518Z,1000.87
2024-02-19T17:29:33.463Z,1000.83
2024-02-19T17:30:33.401Z,1000.84
2024-02-19T17:31:33.505Z,1000.76
2024-02-19T17:32:33.387Z,1000.82
2024-02-19T17:33:33.472Z,1000.88
2024-02-19T17:34:33.459Z,1000.92
2024-02-19T17:35:35.410Z,1000.85
2024-02-19T17:36:33.366Z,1000.83
2024-02-19T17:37:33.425Z,1000.84
2024-02-19T17:38:33.301Z,1000.84
2024-02-19T17:39:33.289Z,1000.86
2024-02-19T17:40:33.379Z,1000.88
2024-02-19T17:41:33.445Z,1000.91
2024-02-19T17:42:33.725Z,1000.95
2024-02-19T17:43:33.348Z,1000.92
2024-02-19T17:44:33.295Z,1000.96
2024-02-19T17:45:33.306Z,1000.93
2024-02-19T17:46:33.340Z,1000.89
2024-02-19T17:47:33.225Z,1000.92
2024-02-19T17:48:33.325Z,1000.95
2024-02-19T17:49:33.391Z,1000.94
2024-02-19T17:50:33.157Z,1000.91
2024-02-19T17:51:33.183Z,1000.90
2024-02-19T17:52:33.241Z,1000.91
2024-02-19T17:53:33.134Z,1000.88
2024-02-19T17:54:33.101Z,1000.88
2024-02-19T17:55:33.157Z,1000.89
2024-02-19T17:56:33.073Z,1000.86
2024-02-19T17:57:33.080Z,1000.84
2024-02-19T17:58:33.199Z,1000.92
2024-02-19T17:59:33.036Z,1000.89
2024-02-19T18:00:33.033Z,1000.89
2024-02-19T18:01:33.116Z,1000.91
2024-02-19T18:02:32.997Z,1000.93
2024-02-19T18:03:33.122Z,1000.92
2024-02-19T18:04:33.020Z,1000.92
2024-02-19T18:05:33.077Z,1000.93
2024-02-19T18:06:33.633Z,1000.94
2024-02-19T18:07:33.029Z,1000.92
2024-02-19T18:08:32.954Z,1000.92
2024-02-19T18:09:32.906Z,1000.94
2024-02-19T18:10:33.134Z,1000.97
2024-02-19T18:11:32.986Z,1000.97
2024-02-19T18:12:32.912Z,1001.00
2024-02-19T18:13:33.024Z,1000.96
2024-02-19T18:14:32.881Z,1000.96
2024-02-19T18:15:32.850Z,1000.99
2024-02-19T18:16:32.952Z,1000.96
2024-02-19T18:17:32.929Z,1000.93
2024-02-19T18:18:32.981Z,1000.95
2024-02-19T18:19:33.031Z,1000.91
2024-02-19T18:20:32.780Z,1000.94
2024-02-19T18:21:32.742Z,1000.96
2024-02-19T18:22:32.935Z,1001.00
2024-02-19T18:23:32.730Z,1000.98
2024-02-19T18:24:32.763Z,1001.03
2024-02-19T18:25:32.768Z,1001.11
2024-02-19T18:26:32.741Z,1001.11
2024-02-19T18:27:32.704Z,1001.12
2024-02-19T18:28:32.813Z,1001.05
2024-02-19T18:29:32.667Z,1001.06
2024-02-19T18:30:32.781Z,1001.06
2024-02-19T18:31:32.662Z,1001.02
2024-02-19T18:32:32.761Z,1001.07
2024-02-19T18:33:32.700Z,1001.02
2024-02-19T18:34:32.856Z,1001.02
2024-02-19T18:35:32.607Z,1001.00
2024-02-19T18:36:32.615Z,1001.00
2024-02-19T18:37:32.593Z,1001.00
2024-02-19T18:38:32.559Z,1001.00
2024-02-19T18:39:33.013Z,1000.94
2024-02-19T18:40:32.603Z,1000.95
2024-02-19T18:41:32.667Z,1000.92
2024-02-19T18:42:32.550Z,1000.86
2024-02-19T18:43:32.600Z,1000.87
2024-02-19T18:44:32.489Z,1000.83
2024-02-19T18:45:32.542Z,1000.80
2024-02-19T18:46:32.511Z,1000.85
2024-02-19T18:47:32.550Z,1000.80
2024-02-19T18:48:32.437Z,1000.83
2024-02-19T18:49:32.456Z,1000.82
2024-02-19T18:50:32.536Z,1000.83
2024-02-19T18:51:32.368Z,1000.80
2024-02-19T18:52:32.439Z,1000.80
2024-02-19T18:53:32.437Z,1000.76
2024-02-19T18:54:32.707Z,1000.78
2024-02-19T18:55:32.473Z,1000.79
2024-02-19T18:56:32.327Z,1000.78
2024-02-19T18:57:32.372Z,1000.76
2024-02-19T18:58:32.329Z,1000.72
2024-02-19T18:59:32.558Z,1000.75
2024-02-19T19:00:32.469Z,1000.79
2024-02-19T19:01:32.366Z,1000.80
2024-02-19T19:02:32.241Z,1000.70
2024-02-19T19:03:32.262Z,1000.75
2024-02-19T19:04:32.533Z,1000.67
2024-02-19T19:05:32.387Z,1000.76
2024-02-19T19:06:32.250Z,1000.74
2024-02-19T19:07:32.338Z,1000.76
2024-02-19T19:08:32.215Z,1000.75
2024-02-19T19:09:32.181Z,1000.73
2024-02-19T19:10:32.224Z,1000.74
2024-02-19T19:11:32.163Z,1000.74
2024-02-19T19:12:32.164Z,1000.74
2024-02-19T19:13:32.216Z,1000.68
2024-02-19T19:14:32.109Z,1000.71
2024-02-19T19:15:32.113Z,1000.70
2024-02-19T19:16:32.161Z,1000.70
2024-02-19T19:17:32.168Z,1000.67
2024-02-19T19:18:32.165Z,1000.66
2024-02-19T19:19:32.241Z,1000.70
2024-02-19T19:20:32.096Z,1000.67
2024-02-19T19:21:32.043Z,1000.61
2024-02-19T19:22:32.105Z,1000.65
2024-02-19T19:23:31.983Z,1000.62
2024-02-19T19:24:31.957Z,1000.63
2024-02-19T19:25:32.051Z,1000.64